Indian Springs Air Force Aux, Nevada
Current Conditions -  °F | °C
As of 1:58 PM on Tuesday 25 Nov 2014 (Local Time) from KLSV Reporting Station
Clear Clear  
Wind Chill: 61°   Ceiling: Unl
Heat Index: 61°   Visibility: 10mi
Dew Point: 13°   Wind: 2mph
Humidity: 15%   Direction: 30°NNE
Pressure: 30.37"   Gusts: NA
Location:  36.2388°N, 115.042°W
Report Text: KLSV 252158Z AUTO 03002KT 10SM CLR 16/M10 A3037 RMK AO2 SLP282 T01611104
Loading
Personal Weather Stations






























Interactive Weather Map New forecast layout! Learn more

10-Day Weather Forecast

Advertisements
Track Severe Weather on mobile